createdAt,value
2023-04-21T00:00:01.664Z,2.80
2023-04-21T00:02:30.297Z,2.60
2023-04-21T00:04:58.484Z,2.87
2023-04-21T00:07:26.665Z,2.67
2023-04-21T00:09:54.600Z,2.97
2023-04-21T00:12:25.101Z,3.10
2023-04-21T00:14:53.138Z,2.70
2023-04-21T00:17:22.500Z,2.80
2023-04-21T00:19:50.464Z,2.90
2023-04-21T00:22:20.031Z,3.20
2023-04-21T00:24:47.914Z,2.90
2023-04-21T00:27:16.538Z,2.80
2023-04-21T00:29:44.958Z,2.97
2023-04-21T00:32:13.190Z,3.03
2023-04-21T00:34:42.470Z,2.60
2023-04-21T00:37:10.385Z,2.97
2023-04-21T00:39:39.662Z,3.30
2023-04-21T00:42:07.660Z,2.73
2023-04-21T00:44:36.721Z,3.27
2023-04-21T00:47:07.118Z,3.00
2023-04-21T00:49:35.154Z,2.73
2023-04-21T00:52:06.006Z,2.73
2023-04-21T00:54:33.999Z,2.77
2023-04-21T00:57:05.089Z,3.20
2023-04-21T00:59:32.996Z,3.00
2023-04-21T01:02:02.951Z,3.20
2023-04-21T01:04:35.528Z,2.60
2023-04-21T01:07:07.259Z,2.90
2023-04-21T01:09:35.315Z,3.30
2023-04-21T01:12:06.332Z,3.00
2023-04-21T01:14:35.589Z,3.17
2023-04-21T01:17:05.367Z,3.17
2023-04-21T01:19:34.256Z,3.50
2023-04-21T01:22:03.672Z,3.20
2023-04-21T01:24:38.753Z,3.13
2023-04-21T01:27:10.121Z,2.90
2023-04-21T01:29:38.161Z,3.03
2023-04-21T01:32:07.700Z,3.07
2023-04-21T01:34:35.822Z,3.00
2023-04-21T01:37:08.057Z,3.27
2023-04-21T01:39:35.974Z,3.00
2023-04-21T01:42:03.887Z,2.93
2023-04-21T01:44:31.858Z,2.93
2023-04-21T01:46:59.817Z,3.40
2023-04-21T01:49:29.343Z,3.10
2023-04-21T01:51:58.288Z,4.03
2023-04-21T01:54:27.607Z,3.00
2023-04-21T01:56:56.248Z,3.20
2023-04-21T01:59:26.670Z,3.10
2023-04-21T02:01:54.588Z,3.17
2023-04-21T02:04:22.947Z,3.50
2023-04-21T02:06:51.003Z,3.37
2023-04-21T02:09:19.005Z,3.30
2023-04-21T02:11:48.661Z,3.17
2023-04-21T02:14:18.066Z,3.10
2023-04-21T02:16:46.105Z,2.87
2023-04-21T02:19:14.097Z,3.63
2023-04-21T02:21:41.991Z,3.33
2023-04-21T02:24:09.868Z,3.40
2023-04-21T02:26:37.840Z,3.10
2023-04-21T02:29:07.080Z,3.43
2023-04-21T02:31:43.118Z,3.40
2023-04-21T02:34:18.685Z,3.97
2023-04-21T02:36:46.609Z,3.70
2023-04-21T02:39:14.511Z,3.67
2023-04-21T02:41:43.614Z,3.67
2023-04-21T02:44:16.026Z,3.33
2023-04-21T02:46:44.069Z,3.30
2023-04-21T02:49:12.019Z,3.80
2023-04-21T02:51:40.127Z,3.60
2023-04-21T02:54:08.237Z,3.60
2023-04-21T02:56:36.193Z,3.43
2023-04-21T02:59:04.221Z,3.23
2023-04-21T03:01:33.989Z,3.43
2023-04-21T03:04:02.352Z,3.60
2023-04-21T03:06:35.741Z,3.67
2023-04-21T03:09:03.737Z,3.60
2023-04-21T03:11:31.618Z,3.27
2023-04-21T03:13:59.482Z,3.60
2023-04-21T03:16:29.528Z,3.73
2023-04-21T03:18:58.885Z,3.97
2023-04-21T03:21:26.926Z,3.50
2023-04-21T03:23:54.868Z,3.70
2023-04-21T03:26:22.833Z,3.57
2023-04-21T03:28:50.778Z,3.13
2023-04-21T03:31:18.675Z,3.67
2023-04-21T03:33:46.629Z,4.03
2023-04-21T03:36:16.131Z,3.90
2023-04-21T03:38:44.046Z,3.77
2023-04-21T03:41:11.970Z,3.60
2023-04-21T03:43:40.017Z,3.87
2023-04-21T03:46:08.050Z,3.50
2023-04-21T03:48:35.983Z,3.73
2023-04-21T03:51:03.948Z,3.47
2023-04-21T03:53:33.250Z,3.73
2023-04-21T03:56:01.514Z,3.03
2023-04-21T03:58:29.431Z,3.57
2023-04-21T04:00:57.306Z,3.87
2023-04-21T04:03:25.411Z,3.37
2023-04-21T04:05:53.500Z,3.83
2023-04-21T04:08:21.682Z,3.50
2023-04-21T04:10:50.929Z,3.27
2023-04-21T04:13:18.833Z,3.60
2023-04-21T04:15:48.508Z,3.73
2023-04-21T04:18:16.431Z,3.70
2023-04-21T04:20:46.916Z,3.53
2023-04-21T04:23:14.797Z,3.77
2023-04-21T04:25:42.839Z,3.60
2023-04-21T04:28:12.620Z,3.43
2023-04-21T04:30:43.812Z,3.33
2023-04-21T04:33:12.291Z,3.60
2023-04-21T04:35:40.188Z,3.50
2023-04-21T04:38:08.397Z,3.77
2023-04-21T04:40:38.508Z,3.27
2023-04-21T04:43:09.682Z,3.37
2023-04-21T04:45:39.080Z,3.70
2023-04-21T04:48:07.755Z,3.53
2023-04-21T04:50:35.735Z,3.40
2023-04-21T04:53:03.616Z,4.10
2023-04-21T04:55:31.488Z,3.60
2023-04-21T04:57:59.371Z,4.10
2023-04-21T05:00:28.638Z,4.10
2023-04-21T05:02:58.215Z,4.20
2023-04-21T05:05:26.557Z,4.17
2023-04-21T05:07:54.437Z,3.80
2023-04-21T05:10:22.345Z,3.70
2023-04-21T05:12:50.267Z,3.80
2023-04-21T05:15:18.532Z,4.40
2023-04-21T05:17:46.423Z,4.03
2023-04-21T05:20:15.702Z,3.90
2023-04-21T05:22:43.555Z,4.17
2023-04-21T05:25:12.152Z,4.00
2023-04-21T05:27:40.043Z,3.70
2023-04-21T05:30:08.931Z,4.40
2023-04-21T05:32:37.074Z,4.10
2023-04-21T05:35:05.382Z,3.63
2023-04-21T05:37:34.634Z,3.80
2023-04-21T05:40:02.525Z,3.93
2023-04-21T05:42:30.436Z,4.40
2023-04-21T05:44:58.327Z,4.27
2023-04-21T05:47:26.301Z,3.93
2023-04-21T05:49:54.425Z,4.20
2023-04-21T05:52:22.359Z,4.23
2023-04-21T05:54:55.113Z,4.20
2023-04-21T05:57:23.861Z,4.30
2023-04-21T05:59:51.745Z,4.30
2023-04-21T06:02:19.763Z,4.13
2023-04-21T06:04:47.904Z,3.90
2023-04-21T06:07:19.316Z,3.47
2023-04-21T06:09:52.442Z,3.83
2023-04-21T06:12:20.577Z,4.00
2023-04-21T06:14:48.446Z,3.87
2023-04-21T06:17:18.708Z,4.00
2023-04-21T06:19:48.107Z,3.87
2023-04-21T06:22:15.973Z,3.80
2023-04-21T06:24:43.878Z,3.97
2023-04-21T06:27:13.601Z,3.83
2023-04-21T06:29:42.561Z,4.20
2023-04-21T06:32:10.754Z,3.80
2023-04-21T06:34:38.819Z,3.60
2023-04-21T06:37:06.738Z,3.60
2023-04-21T06:39:34.628Z,3.50
2023-04-21T06:42:02.572Z,3.73
2023-04-21T06:44:32.368Z,3.90
2023-04-21T06:47:00.375Z,3.90
2023-04-21T06:49:28.351Z,3.77
2023-04-21T06:51:56.380Z,3.50
2023-04-21T06:54:24.280Z,3.60
2023-04-21T06:56:52.191Z,3.83
2023-04-21T06:59:20.477Z,3.83
2023-04-21T07:01:52.190Z,3.23
2023-04-21T07:04:20.238Z,3.73
2023-04-21T07:06:50.380Z,3.30
2023-04-21T07:09:18.563Z,3.93
2023-04-21T07:11:49.485Z,4.10
2023-04-21T07:14:17.355Z,3.53
2023-04-21T07:16:45.295Z,3.77
2023-04-21T07:19:14.592Z,3.50
2023-04-21T07:21:42.498Z,3.47
2023-04-21T07:24:10.592Z,3.40
2023-04-21T07:26:38.554Z,3.80
2023-04-21T07:29:07.198Z,3.73
2023-04-21T07:31:35.258Z,3.80
2023-04-21T07:34:03.259Z,3.60
2023-04-21T07:36:33.037Z,3.53
2023-04-21T07:39:01.388Z,3.60
2023-04-21T07:41:29.545Z,3.37
2023-04-21T07:43:57.469Z,3.40
2023-04-21T07:46:30.144Z,3.30
2023-04-21T07:48:58.278Z,3.43
2023-04-21T07:51:26.152Z,3.60
2023-04-21T07:53:55.688Z,3.43
2023-04-21T07:56:23.576Z,3.80
2023-04-21T07:58:52.630Z,3.27
2023-04-21T08:01:21.018Z,3.80
2023-04-21T08:03:49.119Z,3.23
2023-04-21T08:06:17.466Z,3.20
2023-04-21T08:08:45.603Z,3.13
2023-04-21T08:11:15.088Z,3.17
2023-04-21T08:13:43.018Z,2.90
2023-04-21T08:16:12.564Z,2.90
2023-04-21T08:18:40.521Z,3.30
2023-04-21T08:21:08.363Z,3.00
2023-04-21T08:23:36.253Z,2.80
2023-04-21T08:26:04.289Z,3.20
2023-04-21T08:28:35.786Z,2.80
2023-04-21T08:31:04.866Z,3.03
2023-04-21T08:33:32.884Z,2.90
2023-04-21T08:36:09.815Z,2.70
2023-04-21T08:38:44.261Z,3.10
2023-04-21T08:41:12.226Z,2.83
2023-04-21T08:43:41.452Z,3.47
2023-04-21T08:46:09.710Z,3.10
2023-04-21T08:48:37.834Z,3.03
2023-04-21T08:51:07.032Z,3.10
2023-04-21T08:53:34.898Z,2.87
2023-04-21T08:56:10.763Z,2.80
2023-04-21T08:58:41.534Z,2.83
2023-04-21T09:01:09.565Z,2.93
2023-04-21T09:03:37.590Z,2.80
2023-04-21T09:06:07.992Z,2.60
2023-04-21T09:08:39.695Z,2.63
2023-04-21T09:11:07.607Z,2.70
2023-04-21T09:13:36.347Z,2.70
2023-04-21T09:16:08.533Z,2.80
2023-04-21T09:18:40.240Z,2.70
2023-04-21T09:21:09.688Z,2.70
2023-04-21T09:23:43.274Z,3.10
2023-04-21T09:26:11.271Z,2.67
2023-04-21T09:28:42.115Z,2.40
2023-04-21T09:31:16.762Z,2.33
2023-04-21T09:33:57.685Z,2.20
2023-04-21T09:36:28.074Z,2.50
2023-04-21T09:39:25.245Z,2.13
2023-04-21T09:41:47.143Z,2.63
2023-04-21T09:44:18.457Z,2.50
2023-04-21T09:46:49.349Z,2.40
2023-04-21T09:49:17.935Z,2.40
2023-04-21T09:54:28.930Z,2.33
2023-04-21T09:56:59.422Z,2.23
2023-04-21T09:59:28.166Z,2.50
2023-04-21T10:01:57.447Z,2.50
2023-04-21T10:04:26.049Z,2.10
2023-04-21T10:06:54.415Z,2.40
2023-04-21T10:09:23.659Z,2.40
2023-04-21T10:11:52.289Z,2.50
2023-04-21T10:14:23.696Z,2.30
2023-04-21T10:16:58.859Z,2.37
2023-04-21T10:19:28.050Z,2.30
2023-04-21T10:21:56.792Z,2.30
2023-04-21T10:24:24.949Z,2.43
2023-04-21T10:26:55.098Z,2.07
2023-04-21T10:29:34.691Z,2.33
2023-04-21T10:32:09.920Z,2.00
2023-04-21T10:34:38.856Z,2.00
2023-04-21T10:37:28.692Z,2.30
2023-04-21T10:39:57.023Z,2.17
2023-04-21T10:42:27.205Z,2.23
2023-04-21T10:45:02.445Z,2.10
2023-04-21T10:47:37.026Z,2.10
2023-04-21T10:50:27.164Z,2.13
2023-04-21T10:52:59.554Z,2.17
2023-04-21T10:55:28.548Z,2.10
2023-04-21T10:57:56.740Z,1.77
2023-04-21T11:00:27.812Z,2.10
2023-04-21T11:02:58.784Z,2.00
2023-04-21T11:05:36.499Z,1.90
2023-04-21T11:08:22.380Z,1.70
2023-04-21T11:10:52.787Z,1.80
2023-04-21T11:13:24.547Z,2.50
2023-04-21T11:16:00.061Z,3.80
2023-04-21T11:18:42.475Z,4.97
2023-04-21T11:21:11.627Z,6.20
2023-04-21T11:23:43.053Z,7.50
2023-04-21T11:26:10.961Z,6.27
2023-04-21T11:28:38.906Z,11.73
2023-04-21T11:31:06.985Z,6.67
2023-04-21T11:33:37.394Z,8.77
2023-04-21T11:36:07.407Z,6.50
2023-04-21T11:38:39.970Z,7.77
2023-04-21T11:41:07.991Z,7.67
2023-04-21T11:43:41.227Z,4.57
2023-04-21T11:46:18.661Z,4.77
2023-04-21T11:48:49.118Z,6.90
2023-04-21T11:51:21.494Z,9.33
2023-04-21T11:53:50.327Z,4.60
2023-04-21T11:56:20.005Z,4.47
2023-04-21T11:58:47.915Z,4.73
2023-04-21T12:01:17.151Z,5.77
2023-04-21T12:03:52.431Z,6.33
2023-04-21T12:06:26.082Z,7.70
2023-04-21T12:08:58.412Z,7.80
2023-04-21T12:11:26.350Z,5.63
2023-04-21T12:13:54.244Z,4.90
2023-04-21T12:16:22.183Z,4.70
2023-04-21T12:18:50.306Z,3.70
2023-04-21T12:21:18.188Z,5.70
2023-04-21T12:23:47.425Z,4.23
2023-04-21T12:26:15.328Z,4.53
2023-04-21T12:28:43.228Z,4.33
2023-04-21T12:31:11.368Z,6.70
2023-04-21T12:33:39.309Z,4.53
2023-04-21T12:36:07.670Z,3.27
2023-04-21T12:38:35.648Z,5.77
2023-04-21T12:41:05.055Z,5.00
2023-04-21T12:43:32.927Z,4.40
2023-04-21T12:46:01.187Z,3.10
2023-04-21T12:48:29.086Z,3.57
2023-04-21T12:50:57.009Z,2.67
2023-04-21T12:53:24.894Z,5.10
2023-04-21T12:56:03.543Z,2.80
2023-04-21T12:58:34.309Z,2.93
2023-04-21T13:01:04.919Z,2.80
2023-04-21T13:03:33.164Z,3.17
2023-04-21T13:06:01.190Z,2.77
2023-04-21T13:08:29.088Z,3.80
2023-04-21T13:10:57.112Z,2.50
2023-04-21T13:13:25.000Z,2.73
2023-04-21T13:15:54.245Z,2.63
2023-04-21T13:18:22.147Z,2.77
2023-04-21T13:20:50.051Z,2.40
2023-04-21T13:23:18.094Z,2.20
2023-04-21T13:25:47.564Z,2.87
2023-04-21T13:28:16.876Z,2.77
2023-04-21T13:30:45.099Z,2.80
2023-04-21T13:33:14.479Z,2.37
2023-04-21T13:35:42.543Z,2.30
2023-04-21T13:38:12.129Z,2.13
2023-04-21T13:40:40.040Z,2.50
2023-04-21T13:43:08.006Z,2.20
2023-04-21T13:45:35.902Z,2.30
2023-04-21T13:48:03.889Z,2.30
2023-04-21T13:50:33.383Z,2.30
2023-04-21T13:53:01.856Z,2.10
2023-04-21T13:55:29.818Z,2.10
2023-04-21T13:57:57.771Z,2.47
2023-04-21T14:00:25.773Z,2.57
2023-04-21T14:02:55.332Z,2.47
2023-04-21T14:05:23.575Z,2.77
2023-04-21T14:07:52.909Z,1.70
2023-04-21T14:10:20.858Z,2.70
2023-04-21T14:12:49.072Z,2.03
2023-04-21T14:15:17.037Z,2.00
2023-04-21T14:17:45.030Z,2.20
2023-04-21T14:20:13.270Z,2.17
2023-04-21T14:22:43.983Z,2.00
2023-04-21T14:25:15.502Z,1.90
2023-04-21T14:27:43.400Z,1.90
2023-04-21T14:30:12.508Z,1.93
2023-04-21T14:32:45.203Z,2.13
2023-04-21T14:35:13.378Z,2.60
2023-04-21T14:37:41.452Z,1.90
2023-04-21T14:40:11.568Z,1.90
2023-04-21T14:42:41.539Z,1.80
2023-04-21T14:45:10.685Z,2.10
2023-04-21T14:47:38.709Z,2.00
2023-04-21T14:50:07.805Z,1.80
2023-04-21T14:52:36.077Z,1.67
2023-04-21T14:55:04.448Z,2.00
2023-04-21T14:57:32.426Z,1.97
2023-04-21T15:00:02.099Z,1.67
2023-04-21T15:02:30.850Z,1.70
2023-04-21T15:04:59.130Z,1.60
2023-04-21T15:07:27.528Z,1.73
2023-04-21T15:09:56.714Z,1.77
2023-04-21T15:12:24.687Z,1.90
2023-04-21T15:14:52.624Z,1.60
2023-04-21T15:17:21.994Z,1.57
2023-04-21T15:19:49.920Z,1.57
2023-04-21T15:22:17.813Z,1.87
2023-04-21T15:24:46.442Z,1.63
2023-04-21T15:27:17.378Z,1.67
2023-04-21T15:29:45.300Z,1.90
2023-04-21T15:32:13.299Z,1.60
2023-04-21T15:34:42.535Z,1.60
2023-04-21T15:37:10.561Z,1.30
2023-04-21T15:39:38.710Z,1.50
2023-04-21T15:42:08.300Z,1.50
2023-04-21T15:44:37.720Z,1.53
2023-04-21T15:47:06.199Z,1.50
2023-04-21T15:49:34.360Z,1.50
2023-04-21T15:52:06.618Z,1.40
2023-04-21T15:54:34.998Z,1.40
2023-04-21T15:57:03.185Z,1.60
2023-04-21T15:59:31.283Z,1.40
2023-04-21T16:01:59.310Z,1.50
2023-04-21T16:04:27.618Z,1.40
2023-04-21T16:06:56.051Z,1.60
2023-04-21T16:09:25.494Z,1.70
2023-04-21T16:11:53.476Z,1.37
2023-04-21T16:14:21.421Z,1.40
2023-04-21T16:16:49.417Z,1.60
2023-04-21T16:19:20.002Z,1.40
2023-04-21T16:21:48.068Z,1.47
2023-04-21T16:24:16.058Z,1.40
2023-04-21T16:26:45.480Z,1.50
2023-04-21T16:29:13.557Z,1.33
2023-04-21T16:31:42.970Z,1.40
2023-04-21T16:34:13.642Z,1.27
2023-04-21T16:36:41.553Z,1.73
2023-04-21T16:39:09.563Z,1.40
2023-04-21T16:41:37.475Z,1.30
2023-04-21T16:44:06.767Z,1.27
2023-04-21T16:46:34.764Z,1.40
2023-04-21T16:49:03.039Z,1.43
2023-04-21T16:51:31.639Z,1.50
2023-04-21T16:53:59.519Z,1.17
2023-04-21T16:56:27.485Z,1.50
2023-04-21T16:58:55.396Z,1.40
2023-04-21T17:01:24.747Z,1.60
2023-04-21T17:03:52.819Z,1.47
2023-04-21T17:06:21.790Z,1.40
2023-04-21T17:08:49.743Z,1.37
2023-04-21T17:11:17.707Z,1.57
2023-04-21T17:13:45.643Z,1.40
2023-04-21T17:16:13.613Z,1.30
2023-04-21T17:18:42.932Z,1.37
2023-04-21T17:21:12.891Z,1.40
2023-04-21T17:23:41.961Z,1.17
2023-04-21T17:26:12.233Z,1.20
2023-04-21T17:28:43.641Z,1.10
2023-04-21T17:31:15.700Z,1.40
2023-04-21T17:33:47.799Z,1.30
2023-04-21T17:36:16.830Z,1.33
2023-04-21T17:38:44.843Z,1.30
2023-04-21T17:41:12.790Z,1.47
2023-04-21T17:43:40.757Z,1.20
2023-04-21T17:46:09.060Z,1.20
2023-04-21T17:48:38.981Z,1.30
2023-04-21T17:51:10.922Z,1.20
2023-04-21T17:53:41.732Z,1.40
2023-04-21T17:56:10.900Z,1.20
2023-04-21T17:58:40.488Z,1.30
2023-04-21T18:01:08.495Z,1.17
2023-04-21T18:03:37.297Z,1.10
2023-04-21T18:06:05.749Z,1.10
2023-04-21T18:08:34.986Z,1.20
2023-04-21T18:11:02.943Z,1.30
2023-04-21T18:13:30.893Z,1.20
2023-04-21T18:15:58.947Z,1.00
2023-04-21T18:18:27.022Z,1.27
2023-04-21T18:20:54.940Z,1.10
2023-04-21T18:23:24.933Z,1.10
2023-04-21T18:25:54.145Z,1.07
2023-04-21T18:28:22.026Z,1.20
2023-04-21T18:30:49.913Z,1.10
2023-04-21T18:33:18.447Z,1.17
2023-04-21T18:35:46.364Z,1.10
2023-04-21T18:38:14.262Z,1.20
2023-04-21T18:40:42.276Z,1.00
2023-04-21T18:43:11.574Z,1.30
2023-04-21T18:45:39.673Z,1.13
2023-04-21T18:48:07.757Z,1.27
2023-04-21T18:50:39.515Z,1.20
2023-04-21T18:53:08.214Z,1.23
2023-04-21T18:55:36.423Z,1.10
2023-04-21T18:58:04.413Z,1.03
2023-04-21T19:00:37.170Z,1.10
2023-04-21T19:03:05.675Z,1.30
2023-04-21T19:05:35.866Z,1.20
2023-04-21T19:08:03.868Z,1.10
2023-04-21T19:10:31.908Z,1.40
2023-04-21T19:12:59.810Z,1.20
2023-04-21T19:15:27.726Z,1.10
2023-04-21T19:17:59.144Z,1.20
2023-04-21T19:20:27.229Z,1.20
2023-04-21T19:22:55.327Z,1.10
2023-04-21T19:25:23.260Z,1.17
2023-04-21T19:27:51.504Z,1.30
2023-04-21T19:30:21.658Z,1.10
2023-04-21T19:32:49.650Z,1.10
2023-04-21T19:35:18.930Z,1.20
2023-04-21T19:37:46.868Z,1.27
2023-04-21T19:40:17.244Z,1.13
2023-04-21T19:42:45.184Z,1.10
2023-04-21T19:45:13.150Z,1.00
2023-04-21T19:47:41.141Z,1.30
2023-04-21T19:50:12.836Z,1.03
2023-04-21T19:52:42.105Z,1.13
2023-04-21T19:55:10.551Z,1.10
2023-04-21T19:57:38.453Z,1.10
2023-04-21T20:00:11.335Z,1.20
2023-04-21T20:02:42.208Z,1.20
2023-04-21T20:05:10.720Z,1.30
2023-04-21T20:07:38.677Z,1.13
2023-04-21T20:10:11.667Z,1.17
2023-04-21T20:12:39.582Z,1.00
2023-04-21T20:15:08.704Z,1.30
2023-04-21T20:17:36.883Z,1.20
2023-04-21T20:20:06.896Z,1.17
2023-04-21T20:22:34.846Z,1.10
2023-04-21T20:25:04.171Z,1.27
2023-04-21T20:27:33.572Z,1.10
2023-04-21T20:30:01.499Z,1.20
2023-04-21T20:32:29.433Z,1.20
2023-04-21T20:34:57.477Z,1.00
2023-04-21T20:37:26.025Z,1.30
2023-04-21T20:39:53.977Z,1.10
2023-04-21T20:42:22.416Z,1.17
2023-04-21T20:44:51.753Z,1.23
2023-04-21T20:47:19.630Z,1.10
2023-04-21T20:49:47.976Z,1.00
2023-04-21T20:52:16.284Z,1.20
2023-04-21T20:54:45.968Z,1.20
2023-04-21T20:57:13.930Z,1.20
2023-04-21T20:59:41.904Z,1.07
2023-04-21T21:02:11.288Z,1.20
2023-04-21T21:04:39.329Z,1.00
2023-04-21T21:07:10.382Z,1.17
2023-04-21T21:09:38.646Z,1.23
2023-04-21T21:12:06.925Z,1.10
2023-04-21T21:14:34.841Z,1.20
2023-04-21T21:17:04.324Z,1.00
2023-04-21T21:19:33.621Z,1.20
2023-04-21T21:22:01.559Z,1.00
2023-04-21T21:24:29.507Z,1.13
2023-04-21T21:26:58.156Z,1.03
2023-04-21T21:29:29.174Z,1.10
2023-04-21T21:31:57.195Z,1.03
2023-04-21T21:34:25.226Z,1.20
2023-04-21T21:36:56.366Z,0.97
2023-04-21T21:39:24.231Z,1.30
2023-04-21T21:41:52.088Z,1.10
2023-04-21T21:44:21.318Z,1.10
2023-04-21T21:46:50.356Z,1.00
2023-04-21T21:49:18.366Z,0.90
2023-04-21T21:51:47.998Z,1.13
2023-04-21T21:54:17.426Z,0.90
2023-04-21T21:56:45.350Z,1.07
2023-04-21T21:59:13.224Z,1.03
2023-04-21T22:01:42.606Z,1.10
2023-04-21T22:04:10.835Z,1.13
2023-04-21T22:06:39.085Z,0.80
2023-04-21T22:09:07.370Z,0.87
2023-04-21T22:11:37.136Z,1.10
2023-04-21T22:14:14.547Z,1.10
2023-04-21T22:16:50.506Z,1.20
2023-04-21T22:19:20.281Z,1.00
2023-04-21T22:21:48.257Z,1.10
2023-04-21T22:24:16.159Z,1.03
2023-04-21T22:26:45.548Z,1.07
2023-04-21T22:29:13.424Z,1.00
2023-04-21T22:31:41.406Z,1.20
2023-04-21T22:34:09.367Z,1.00
2023-04-21T22:36:37.279Z,0.90
2023-04-21T22:39:05.386Z,0.90
2023-04-21T22:41:33.255Z,1.17
2023-04-21T22:44:05.214Z,0.90
2023-04-21T22:46:34.880Z,1.00
2023-04-21T22:49:03.856Z,0.80
2023-04-21T22:51:32.515Z,0.80
2023-04-21T22:54:00.815Z,1.07
2023-04-21T22:56:29.066Z,1.03
2023-04-21T22:58:56.942Z,1.00
2023-04-21T23:01:26.302Z,1.10
2023-04-21T23:03:54.514Z,1.00
2023-04-21T23:06:22.444Z,1.03
2023-04-21T23:08:50.421Z,1.00
2023-04-21T23:11:18.337Z,1.10
2023-04-21T23:13:49.014Z,1.20
2023-04-21T23:16:17.003Z,1.07
2023-04-21T23:18:46.251Z,1.10
2023-04-21T23:21:14.130Z,1.20
2023-04-21T23:23:42.022Z,0.90
2023-04-21T23:26:11.517Z,1.00
2023-04-21T23:28:39.398Z,1.00
2023-04-21T23:31:07.450Z,0.80
2023-04-21T23:33:35.438Z,1.10
2023-04-21T23:36:04.705Z,1.00
2023-04-21T23:38:32.596Z,1.10
2023-04-21T23:41:00.851Z,0.93
2023-04-21T23:43:29.255Z,1.03
2023-04-21T23:45:57.220Z,1.03
2023-04-21T23:48:25.133Z,0.93
2023-04-21T23:50:53.068Z,1.00
2023-04-21T23:53:22.354Z,1.00
2023-04-21T23:55:50.226Z,1.10
2023-04-21T23:58:18.100Z,1.10
